createdAt,value
2022-08-28T00:02:06.242Z,1.70
2022-08-28T00:04:34.531Z,3.33
2022-08-28T00:07:04.711Z,3.87
2022-08-28T00:09:32.691Z,2.90
2022-08-28T00:12:00.404Z,1.73
2022-08-28T00:14:28.417Z,2.63
2022-08-28T00:16:56.637Z,3.00
2022-08-28T00:19:25.324Z,2.70
2022-08-28T00:21:53.973Z,4.03
2022-08-28T00:24:23.277Z,3.00
2022-08-28T00:27:08.360Z,2.83
2022-08-28T00:29:36.078Z,2.53
2022-08-28T00:32:05.511Z,2.77
2022-08-28T00:34:33.787Z,3.00
2022-08-28T00:37:02.024Z,1.70
2022-08-28T00:39:31.218Z,2.00
2022-08-28T00:41:59.464Z,2.10
2022-08-28T00:44:29.759Z,2.93
2022-08-28T00:47:00.007Z,3.73
2022-08-28T00:49:31.339Z,3.07
2022-08-28T00:52:12.510Z,4.10
2022-08-28T00:54:58.598Z,4.07
2022-08-28T00:57:31.863Z,5.30
2022-08-28T00:59:59.894Z,3.90
2022-08-28T01:02:27.705Z,5.13
2022-08-28T01:04:56.368Z,4.00
2022-08-28T01:07:24.142Z,4.40
2022-08-28T01:09:55.602Z,3.47
2022-08-28T01:12:26.013Z,4.67
2022-08-28T01:14:59.938Z,4.63
2022-08-28T01:17:31.218Z,4.27
2022-08-28T01:20:03.776Z,3.60
2022-08-28T01:22:37.879Z,8.07
2022-08-28T01:25:09.831Z,3.93
2022-08-28T01:27:37.705Z,4.87
2022-08-28T01:30:06.465Z,2.90
2022-08-28T01:32:36.842Z,3.27
2022-08-28T01:35:06.787Z,6.57
2022-08-28T01:37:34.455Z,3.60
2022-08-28T01:40:02.397Z,4.47
2022-08-28T01:42:31.521Z,3.23
2022-08-28T01:44:59.205Z,7.63
2022-08-28T01:47:26.896Z,7.37
2022-08-28T01:49:54.580Z,5.40
2022-08-28T01:52:26.253Z,3.47
2022-08-28T01:54:54.293Z,4.00
2022-08-28T01:57:24.787Z,4.03
2022-08-28T01:59:54.478Z,4.33
2022-08-28T02:02:22.344Z,6.13
2022-08-28T02:04:50.538Z,14.40
2022-08-28T02:07:18.323Z,6.33
2022-08-28T02:09:46.031Z,5.60
2022-08-28T02:12:13.714Z,6.30
2022-08-28T02:14:41.748Z,4.10
2022-08-28T02:17:11.561Z,6.00
2022-08-28T02:19:39.211Z,3.17
2022-08-28T02:22:08.319Z,6.20
2022-08-28T02:24:36.196Z,4.03
2022-08-28T02:27:05.448Z,4.47
2022-08-28T02:29:33.205Z,5.83
2022-08-28T02:32:00.928Z,5.40
2022-08-28T02:34:29.952Z,4.23
2022-08-28T02:36:57.671Z,4.53
2022-08-28T02:39:25.595Z,4.90
2022-08-28T02:41:53.291Z,3.40
2022-08-28T02:44:21.048Z,6.30
2022-08-28T02:46:48.757Z,7.87
2022-08-28T02:49:16.443Z,4.30
2022-08-28T02:51:45.829Z,6.17
2022-08-28T02:54:13.524Z,7.77
2022-08-28T02:56:45.292Z,5.83
2022-08-28T02:59:13.461Z,5.50
2022-08-28T03:01:41.307Z,5.47
2022-08-28T03:04:09.089Z,4.87
2022-08-28T03:06:36.755Z,7.20
2022-08-28T03:09:06.477Z,5.67
2022-08-28T03:11:34.797Z,5.20
2022-08-28T03:14:03.425Z,4.80
2022-08-28T03:16:32.366Z,5.13
2022-08-28T03:19:00.075Z,5.10
2022-08-28T03:21:27.785Z,6.03
2022-08-28T03:23:55.424Z,5.30
2022-08-28T03:26:24.824Z,4.73
2022-08-28T03:28:54.380Z,5.70
2022-08-28T03:31:24.653Z,6.43
2022-08-28T03:33:53.214Z,5.60
2022-08-28T03:36:24.209Z,6.37
2022-08-28T03:38:54.353Z,4.60
2022-08-28T03:41:25.441Z,7.20
2022-08-28T03:43:53.135Z,5.30
2022-08-28T03:46:23.767Z,7.10
2022-08-28T03:48:52.370Z,5.50
2022-08-28T03:51:25.507Z,5.30
2022-08-28T03:53:58.356Z,5.70
2022-08-28T03:56:29.182Z,5.23
2022-08-28T03:58:59.972Z,9.10
2022-08-28T04:01:28.039Z,6.63
2022-08-28T04:03:56.993Z,6.50
2022-08-28T04:06:24.751Z,5.97
2022-08-28T04:08:52.514Z,5.70
2022-08-28T04:11:20.200Z,6.57
2022-08-28T04:13:49.266Z,7.00
2022-08-28T04:16:19.185Z,6.87
2022-08-28T04:18:49.307Z,5.60
2022-08-28T04:21:19.639Z,8.07
2022-08-28T04:23:48.168Z,6.00
2022-08-28T04:26:18.938Z,7.20
2022-08-28T04:28:47.492Z,6.23
2022-08-28T04:31:17.505Z,6.37
2022-08-28T04:33:45.543Z,5.00
2022-08-28T04:36:15.415Z,5.23
2022-08-28T04:38:44.274Z,5.27
2022-08-28T04:41:14.012Z,4.73
2022-08-28T04:43:41.762Z,4.13
2022-08-28T04:46:11.967Z,4.50
2022-08-28T04:48:42.624Z,11.60
2022-08-28T04:51:12.247Z,5.17
2022-08-28T04:53:40.978Z,8.70
2022-08-28T04:56:12.324Z,4.70
2022-08-28T04:58:41.332Z,5.90
2022-08-28T05:01:11.193Z,5.33
2022-08-28T05:03:41.051Z,7.33
2022-08-28T05:06:09.467Z,6.03
2022-08-28T05:08:37.176Z,10.57
2022-08-28T05:11:14.257Z,6.03
2022-08-28T05:14:02.316Z,6.00
2022-08-28T05:16:30.201Z,5.97
2022-08-28T05:19:02.004Z,6.27
2022-08-28T05:21:29.890Z,6.53
2022-08-28T05:23:59.235Z,8.73
2022-08-28T05:26:29.893Z,7.83
2022-08-28T05:28:59.226Z,6.00
2022-08-28T05:31:28.802Z,7.43
2022-08-28T05:33:57.030Z,10.83
2022-08-28T05:36:32.345Z,7.47
2022-08-28T05:39:01.328Z,8.70
2022-08-28T05:41:30.994Z,6.60
2022-08-28T05:44:00.158Z,7.00
2022-08-28T05:46:29.370Z,7.03
2022-08-28T05:48:57.717Z,7.07
2022-08-28T05:51:27.873Z,7.83
2022-08-28T05:53:57.533Z,8.73
2022-08-28T05:56:29.536Z,7.57
2022-08-28T05:58:57.542Z,8.47
2022-08-28T06:01:28.552Z,10.93
2022-08-28T06:03:59.213Z,7.23
2022-08-28T06:06:30.561Z,9.80
2022-08-28T06:08:59.738Z,10.00
2022-08-28T06:11:30.708Z,13.73
2022-08-28T06:14:01.544Z,11.87
2022-08-28T06:16:30.024Z,12.20
2022-08-28T06:18:57.907Z,13.33
2022-08-28T06:21:26.007Z,14.67
2022-08-28T06:23:55.096Z,14.13
2022-08-28T06:26:22.996Z,19.77
2022-08-28T06:28:51.174Z,19.87
2022-08-28T06:31:24.311Z,16.93
2022-08-28T06:33:53.994Z,18.10
2022-08-28T06:36:22.013Z,18.57
2022-08-28T06:38:49.730Z,16.70
2022-08-28T06:41:19.630Z,19.70
2022-08-28T06:43:47.307Z,21.37
2022-08-28T06:46:15.106Z,18.33
2022-08-28T06:48:42.859Z,21.47
2022-08-28T06:51:13.263Z,16.67
2022-08-28T06:53:42.919Z,20.97
2022-08-28T06:56:16.179Z,20.17
2022-08-28T06:58:57.182Z,23.00
2022-08-28T07:01:29.338Z,21.17
2022-08-28T07:04:00.284Z,17.30
2022-08-28T07:06:31.744Z,25.30
2022-08-28T07:08:59.466Z,25.53
2022-08-28T07:11:29.729Z,25.90
2022-08-28T07:13:59.276Z,26.07
2022-08-28T07:16:29.377Z,23.33
2022-08-28T07:18:57.454Z,28.80
2022-08-28T07:21:25.598Z,26.00
2022-08-28T07:23:53.499Z,33.73
2022-08-28T07:26:23.893Z,27.80
2022-08-28T07:28:51.728Z,25.80
2022-08-28T07:31:22.862Z,25.17
2022-08-28T07:33:53.996Z,25.40
2022-08-28T07:36:29.649Z,29.23
2022-08-28T07:38:58.996Z,22.20
2022-08-28T07:41:28.662Z,25.13
2022-08-28T07:44:14.457Z,21.13
2022-08-28T07:46:43.530Z,16.10
2022-08-28T07:49:12.007Z,19.40
2022-08-28T07:51:40.096Z,15.50
2022-08-28T07:54:10.184Z,18.03
2022-08-28T07:56:45.636Z,18.07
2022-08-28T07:59:13.926Z,16.13
2022-08-28T08:01:48.098Z,19.90
2022-08-28T08:04:17.203Z,20.27
2022-08-28T08:06:46.810Z,21.33
2022-08-28T08:09:16.815Z,18.97
2022-08-28T08:11:44.803Z,23.07
2022-08-28T08:14:13.093Z,17.40
2022-08-28T08:16:43.373Z,24.40
2022-08-28T08:19:14.963Z,19.07
2022-08-28T08:21:43.770Z,18.97
2022-08-28T08:24:19.978Z,15.43
2022-08-28T08:26:55.207Z,20.40
2022-08-28T08:29:31.386Z,21.27
2022-08-28T08:32:04.871Z,22.83
2022-08-28T08:34:36.318Z,21.70
2022-08-28T08:37:05.543Z,22.30
2022-08-28T08:39:33.392Z,21.87
2022-08-28T08:42:03.306Z,24.13
2022-08-28T08:44:34.590Z,22.80
2022-08-28T08:47:14.993Z,23.80
2022-08-28T08:49:51.144Z,28.20
2022-08-28T08:52:31.030Z,28.10
2022-08-28T08:55:20.065Z,28.10
2022-08-28T08:57:52.791Z,27.43
2022-08-28T09:00:22.765Z,28.10
2022-08-28T09:02:57.231Z,28.50
2022-08-28T09:05:39.778Z,28.10
2022-08-28T09:08:13.533Z,30.10
2022-08-28T09:10:49.154Z,25.20
2022-08-28T09:13:26.318Z,29.87
2022-08-28T09:15:54.357Z,30.90
2022-08-28T09:18:25.914Z,35.53
2022-08-28T09:20:58.138Z,27.60
2022-08-28T09:23:29.835Z,31.53
2022-08-28T09:26:01.784Z,30.57
2022-08-28T09:28:34.250Z,31.47
2022-08-28T09:31:06.369Z,33.90
2022-08-28T09:33:38.934Z,29.80
2022-08-28T09:36:38.755Z,33.00
2022-08-28T09:39:13.243Z,31.27
2022-08-28T09:42:08.077Z,30.40
2022-08-28T09:44:50.868Z,33.37
2022-08-28T09:47:49.061Z,32.63
2022-08-28T09:50:33.447Z,35.50
2022-08-28T09:53:18.273Z,33.07
2022-08-28T09:55:54.870Z,34.73
2022-08-28T09:58:24.291Z,34.10
2022-08-28T10:01:08.635Z,29.53
2022-08-28T10:03:44.576Z,31.77
2022-08-28T10:06:19.988Z,33.10
2022-08-28T10:09:01.251Z,36.93
2022-08-28T10:11:37.544Z,35.67
2022-08-28T10:14:19.972Z,32.20
2022-08-28T10:16:57.314Z,40.53
2022-08-28T10:19:36.191Z,35.20
2022-08-28T10:22:17.984Z,35.60
2022-08-28T10:25:02.553Z,43.60
2022-08-28T10:27:42.276Z,36.80
2022-08-28T10:30:14.566Z,38.83
2022-08-28T10:32:59.945Z,36.00
2022-08-28T10:35:39.779Z,37.97
2022-08-28T10:38:12.766Z,40.03
2022-08-28T10:40:46.168Z,33.90
2022-08-28T10:43:17.279Z,41.40
2022-08-28T10:45:45.509Z,41.87
2022-08-28T10:48:21.675Z,43.13
2022-08-28T10:50:54.226Z,41.27
2022-08-28T10:53:25.790Z,39.27
2022-08-28T10:56:00.084Z,37.83
2022-08-28T10:58:28.610Z,41.33
2022-08-28T11:01:01.136Z,36.40
2022-08-28T11:03:34.745Z,31.97
2022-08-28T11:06:10.098Z,38.00
2022-08-28T11:08:39.605Z,38.83
2022-08-28T11:11:14.797Z,35.90
2022-08-28T11:13:47.919Z,37.80
2022-08-28T11:16:23.034Z,36.67
2022-08-28T11:19:17.332Z,35.47
2022-08-28T11:21:48.958Z,36.80
2022-08-28T11:24:44.058Z,33.70
2022-08-28T11:27:23.555Z,38.27
2022-08-28T11:30:32.703Z,44.67
2022-08-28T11:33:04.229Z,30.90
2022-08-28T11:35:42.943Z,36.00
2022-08-28T11:38:11.329Z,36.00
2022-08-28T11:40:55.221Z,35.60
2022-08-28T11:43:36.471Z,36.67
2022-08-28T11:46:19.910Z,39.13
2022-08-28T11:48:53.407Z,32.00
2022-08-28T11:51:40.974Z,33.67
2022-08-28T11:54:20.761Z,33.43
2022-08-28T11:56:55.293Z,35.53
2022-08-28T11:59:41.008Z,33.03
2022-08-28T12:02:40.610Z,32.80
2022-08-28T12:05:11.037Z,33.77
2022-08-28T12:07:40.147Z,38.60
2022-08-28T12:10:57.996Z,35.03
2022-08-28T12:13:47.445Z,33.50
2022-08-28T12:16:15.881Z,35.73
2022-08-28T12:19:02.657Z,23.77
2022-08-28T12:21:32.043Z,31.57
2022-08-28T12:24:22.803Z,35.63
2022-08-28T12:26:57.101Z,31.33
2022-08-28T12:29:31.389Z,28.67
2022-08-28T12:32:24.950Z,36.00
2022-08-28T12:35:08.834Z,36.80
2022-08-28T12:37:52.288Z,27.73
2022-08-28T12:40:23.141Z,27.97
2022-08-28T12:42:55.907Z,27.70
2022-08-28T12:45:28.015Z,30.20
2022-08-28T12:48:00.106Z,31.60
2022-08-28T12:50:34.964Z,26.53
2022-08-28T12:53:05.490Z,26.93
2022-08-28T12:55:34.096Z,26.30
2022-08-28T12:58:03.236Z,26.10
2022-08-28T13:00:35.715Z,30.47
2022-08-28T13:03:08.307Z,32.27
2022-08-28T13:05:39.658Z,31.37
2022-08-28T13:08:09.987Z,27.93
2022-08-28T13:10:41.185Z,33.77
2022-08-28T13:13:19.306Z,31.27
2022-08-28T13:15:51.054Z,33.67
2022-08-28T13:18:42.569Z,31.57
2022-08-28T13:21:34.279Z,34.07
2022-08-28T13:24:40.567Z,33.13
2022-08-28T13:27:24.268Z,24.80
2022-08-28T13:30:06.836Z,36.77
2022-08-28T13:32:37.219Z,32.23
2022-08-28T13:35:16.637Z,41.10
2022-08-28T13:37:47.896Z,39.30
2022-08-28T13:40:44.459Z,32.50
2022-08-28T13:43:11.403Z,30.40
2022-08-28T13:45:44.562Z,34.27
2022-08-28T13:48:16.846Z,34.33
2022-08-28T13:50:48.146Z,33.53
2022-08-28T13:53:18.686Z,36.60
2022-08-28T13:55:47.469Z,28.80
2022-08-28T13:58:15.919Z,45.70
2022-08-28T14:00:47.610Z,43.13
2022-08-28T14:03:33.481Z,32.73
2022-08-28T14:06:02.494Z,35.37
2022-08-28T14:08:30.525Z,36.57
2022-08-28T14:10:59.523Z,31.00
2022-08-28T14:13:27.906Z,33.00
2022-08-28T14:15:57.879Z,31.90
2022-08-28T14:18:26.603Z,35.27
2022-08-28T14:20:54.383Z,37.00
2022-08-28T14:23:23.021Z,33.17
2022-08-28T14:25:50.790Z,34.03
2022-08-28T14:28:19.133Z,30.97
2022-08-28T14:30:48.972Z,30.27
2022-08-28T14:33:20.646Z,28.37
2022-08-28T14:35:49.714Z,27.80
2022-08-28T14:38:18.421Z,26.53
2022-08-28T14:40:46.299Z,33.73
2022-08-28T14:43:15.305Z,36.40
2022-08-28T14:45:45.116Z,33.87
2022-08-28T14:48:12.963Z,35.40
2022-08-28T14:50:43.327Z,33.83
2022-08-28T14:53:11.753Z,31.97
2022-08-28T14:55:41.934Z,30.97
2022-08-28T14:58:09.586Z,31.20
2022-08-28T15:00:41.433Z,29.20
2022-08-28T15:03:09.900Z,28.57
2022-08-28T15:05:37.658Z,26.73
2022-08-28T15:08:09.428Z,29.27
2022-08-28T15:10:38.405Z,28.40
2022-08-28T15:13:07.710Z,23.53
2022-08-28T15:15:36.574Z,28.53
2022-08-28T15:18:04.537Z,27.90
2022-08-28T15:20:32.654Z,22.07
2022-08-28T15:23:00.350Z,25.03
2022-08-28T15:25:29.395Z,23.30
2022-08-28T15:27:57.057Z,24.53
2022-08-28T15:30:24.726Z,23.93
2022-08-28T15:32:52.685Z,17.90
2022-08-28T15:35:20.317Z,17.77
2022-08-28T15:37:48.039Z,17.07
2022-08-28T15:40:32.497Z,20.13
2022-08-28T15:43:01.571Z,19.90
2022-08-28T15:45:30.381Z,19.33
2022-08-28T15:47:58.909Z,21.27
2022-08-28T15:50:26.557Z,21.07
2022-08-28T15:52:54.224Z,23.07
2022-08-28T15:55:21.879Z,22.20
2022-08-28T15:57:51.613Z,22.40
2022-08-28T16:00:20.886Z,27.00
2022-08-28T16:02:48.614Z,21.97
2022-08-28T16:05:16.970Z,24.67
2022-08-28T16:07:44.689Z,22.90
2022-08-28T16:10:13.425Z,23.00
2022-08-28T16:12:41.466Z,19.77
2022-08-28T16:15:10.552Z,23.07
2022-08-28T16:17:39.635Z,20.77
2022-08-28T16:20:11.100Z,20.33
2022-08-28T16:22:41.448Z,22.83
2022-08-28T16:25:10.648Z,20.47
2022-08-28T16:27:38.274Z,25.17
2022-08-28T16:30:15.856Z,21.10
2022-08-28T16:32:46.796Z,28.10
2022-08-28T16:35:15.852Z,24.00
2022-08-28T16:37:43.997Z,27.00
2022-08-28T16:40:14.907Z,20.00
2022-08-28T16:42:51.771Z,19.37
2022-08-28T16:45:27.168Z,20.07
2022-08-28T16:48:06.022Z,19.97
2022-08-28T16:50:33.751Z,21.27
2022-08-28T16:53:06.701Z,17.80
2022-08-28T16:55:35.404Z,22.67
2022-08-28T16:58:03.124Z,19.60
2022-08-28T17:00:32.100Z,24.83
2022-08-28T17:03:01.210Z,24.20
2022-08-28T17:05:29.857Z,19.70
2022-08-28T17:07:57.605Z,21.37
2022-08-28T17:10:25.575Z,23.17
2022-08-28T17:12:53.848Z,24.90
2022-08-28T17:15:23.081Z,20.03
2022-08-28T17:17:51.448Z,20.43
2022-08-28T17:20:38.085Z,17.80
2022-08-28T17:23:06.056Z,19.20
2022-08-28T17:25:34.318Z,21.70
2022-08-28T17:28:02.133Z,22.47
2022-08-28T17:30:30.047Z,23.30
2022-08-28T17:32:58.206Z,24.13
2022-08-28T17:35:27.331Z,21.57
2022-08-28T17:37:55.647Z,19.10
2022-08-28T17:40:23.754Z,22.10
2022-08-28T17:42:53.534Z,25.60
2022-08-28T17:45:21.311Z,21.87
2022-08-28T17:47:48.971Z,23.30
2022-08-28T17:50:16.634Z,24.53
2022-08-28T17:52:45.643Z,23.00
2022-08-28T17:55:13.322Z,28.00
2022-08-28T17:57:41.034Z,26.10
2022-08-28T18:00:11.533Z,21.50
2022-08-28T18:02:42.027Z,24.80
2022-08-28T18:05:11.401Z,32.83
2022-08-28T18:07:39.276Z,26.53
2022-08-28T18:10:11.625Z,29.17
2022-08-28T18:12:39.835Z,25.77
2022-08-28T18:15:09.729Z,20.70
2022-08-28T18:17:38.095Z,26.03
2022-08-28T18:20:08.874Z,23.23
2022-08-28T18:22:37.025Z,24.00
2022-08-28T18:25:05.187Z,25.27
2022-08-28T18:27:34.385Z,23.90
2022-08-28T18:30:02.552Z,23.97
2022-08-28T18:32:30.424Z,26.93
2022-08-28T18:34:58.066Z,23.20
2022-08-28T18:37:25.704Z,23.83
2022-08-28T18:39:54.370Z,23.80
2022-08-28T18:42:22.166Z,22.80
2022-08-28T18:44:51.435Z,26.40
2022-08-28T18:47:19.521Z,25.33
2022-08-28T18:49:47.196Z,24.20
2022-08-28T18:52:14.853Z,25.10
2022-08-28T18:54:42.699Z,29.03
2022-08-28T18:57:12.315Z,21.43
2022-08-28T18:59:40.001Z,29.87
2022-08-28T19:02:09.035Z,23.97
2022-08-28T19:04:36.882Z,22.07
2022-08-28T19:07:06.229Z,26.50
2022-08-28T19:09:34.985Z,24.80
2022-08-28T19:12:03.281Z,24.60
2022-08-28T19:14:30.948Z,24.47
2022-08-28T19:16:59.032Z,25.17
2022-08-28T19:19:28.288Z,26.70
2022-08-28T19:21:56.014Z,23.67
2022-08-28T19:24:24.306Z,27.23
2022-08-28T19:26:51.944Z,19.63
2022-08-28T19:29:19.628Z,19.63
2022-08-28T19:31:47.263Z,25.57
2022-08-28T19:34:14.909Z,23.63
2022-08-28T19:36:44.015Z,26.13
2022-08-28T19:39:11.954Z,23.60
2022-08-28T19:41:40.617Z,26.43
2022-08-28T19:44:08.534Z,32.13
2022-08-28T19:46:36.854Z,22.30
2022-08-28T19:49:05.856Z,24.60
2022-08-28T19:51:34.810Z,21.10
2022-08-28T19:54:04.129Z,22.63
2022-08-28T19:56:33.153Z,21.40
2022-08-28T19:59:03.118Z,20.33
2022-08-28T20:01:33.502Z,24.30
2022-08-28T20:04:02.394Z,19.90
2022-08-28T20:06:32.642Z,25.50
2022-08-28T20:09:01.196Z,18.60
2022-08-28T20:11:31.003Z,21.37
2022-08-28T20:14:03.850Z,23.07
2022-08-28T20:16:34.075Z,23.93
2022-08-28T20:19:01.977Z,26.30
2022-08-28T20:21:37.010Z,23.37
2022-08-28T20:24:06.244Z,24.83
2022-08-28T20:26:36.123Z,22.77
2022-08-28T20:29:05.013Z,28.13
2022-08-28T20:31:32.759Z,26.13
2022-08-28T20:34:00.505Z,20.97
2022-08-28T20:36:28.265Z,21.27
2022-08-28T20:38:55.984Z,27.60
2022-08-28T20:41:23.837Z,21.03
2022-08-28T20:43:52.955Z,23.60
2022-08-28T20:46:20.775Z,20.70
2022-08-28T20:48:48.662Z,24.30
2022-08-28T20:51:16.349Z,24.73
2022-08-28T20:53:45.430Z,24.93
2022-08-28T20:56:13.372Z,26.07
2022-08-28T20:58:41.125Z,22.20
2022-08-28T21:01:10.357Z,26.03
2022-08-28T21:03:38.052Z,20.60
2022-08-28T21:06:06.073Z,25.10
2022-08-28T21:08:33.732Z,22.70
2022-08-28T21:11:01.436Z,24.60
2022-08-28T21:13:29.075Z,23.07
2022-08-28T21:15:56.780Z,28.80
2022-08-28T21:18:25.783Z,25.10
2022-08-28T21:20:55.905Z,23.40
2022-08-28T21:23:24.259Z,23.67
2022-08-28T21:25:51.910Z,21.47
2022-08-28T21:28:19.784Z,19.90
2022-08-28T21:30:47.633Z,24.83
2022-08-28T21:33:15.390Z,20.00
2022-08-28T21:35:45.612Z,21.37
2022-08-28T21:38:13.448Z,18.90
2022-08-28T21:40:41.495Z,20.00
2022-08-28T21:43:09.224Z,21.20
2022-08-28T21:45:37.123Z,24.73
2022-08-28T21:48:05.046Z,22.90
2022-08-28T21:50:32.706Z,21.83
2022-08-28T21:53:01.730Z,18.50
2022-08-28T21:55:29.422Z,22.53
2022-08-28T21:57:57.249Z,22.70
2022-08-28T22:00:25.092Z,21.53
2022-08-28T22:02:52.815Z,19.93
2022-08-28T22:05:21.364Z,24.13
2022-08-28T22:07:49.099Z,22.73
2022-08-28T22:10:18.141Z,21.63
2022-08-28T22:12:45.786Z,24.20
2022-08-28T22:15:13.569Z,23.83
2022-08-28T22:17:41.309Z,20.63
2022-08-28T22:20:10.212Z,25.50
2022-08-28T22:22:55.413Z,20.77
2022-08-28T22:25:24.678Z,20.57
2022-08-28T22:27:52.436Z,22.67
2022-08-28T22:30:20.977Z,26.70
2022-08-28T22:32:48.640Z,24.03
2022-08-28T22:35:16.404Z,21.70
2022-08-28T22:37:44.116Z,20.47
2022-08-28T22:40:12.960Z,21.67
2022-08-28T22:42:42.699Z,17.63
2022-08-28T22:45:11.276Z,28.60
2022-08-28T22:47:39.560Z,18.13
2022-08-28T22:50:08.484Z,21.27
2022-08-28T22:52:37.137Z,21.33
2022-08-28T22:55:06.667Z,24.13
2022-08-28T22:57:34.438Z,22.37
2022-08-28T23:00:06.202Z,20.83
2022-08-28T23:02:34.831Z,19.30
2022-08-28T23:05:02.833Z,20.13
2022-08-28T23:07:30.674Z,24.53
2022-08-28T23:09:58.333Z,19.27
2022-08-28T23:12:25.976Z,22.40
2022-08-28T23:14:53.721Z,18.00
2022-08-28T23:17:22.812Z,20.87
2022-08-28T23:19:52.686Z,23.00
2022-08-28T23:22:20.334Z,23.83
2022-08-28T23:24:48.753Z,21.07
2022-08-28T23:27:35.443Z,21.90
2022-08-28T23:30:03.901Z,20.67
2022-08-28T23:32:33.788Z,24.67
2022-08-28T23:35:28.464Z,22.97
2022-08-28T23:37:56.215Z,22.63
2022-08-28T23:40:25.158Z,21.07
2022-08-28T23:42:56.093Z,21.70
2022-08-28T23:45:23.879Z,36.93
2022-08-28T23:47:52.982Z,21.10
2022-08-28T23:50:23.600Z,20.00
2022-08-28T23:52:52.901Z,18.07
2022-08-28T23:55:21.085Z,26.43
2022-08-28T23:57:52.273Z,20.10
